Flight Track Log - Related Links

Times and Time Zones

All times are in EDT time to prevent confusion due to time zone crossing. See the N595PC flight status page for this flight to view local times or setup timezone preferences in your user account.

Time Position Orientation Groundspeed Altitude Reporting Facility
EDT Latitude Longitude Course Direction KTS MPH feet Rate Location/Type
Wed 08:09:16 AM 41.4172 -81.8406 32° Northeast 186 214 1,600  Level Cleveland Center
Wed 08:10:13 AM 41.4575 -81.8075 32° Northeast 207 238 3,100 2,370 Climbing Cleveland Center
Wed 08:11:15 AM 41.5317 -81.7572 27° Northeast 245 282 6,300 2,758 Climbing Cleveland Center
Wed 08:12:17 AM 41.5936 -81.7050 32° Northeast 254 292 8,800 2,323 Climbing Cleveland Center
Wed 08:13:19 AM 41.6244 -81.6072 67° East 281 323 11,100 2,098 Climbing Cleveland Center
Wed 08:14:20 AM 41.6419 -81.4981 78° East 293 337 13,100 1,951 Climbing Cleveland Center
Wed 08:15:22 AM 41.6636 -81.3839 76° East 309 356 15,100 1,839 Climbing Cleveland Center
Wed 08:16:24 AM 41.6822 -81.2667 78° East 315 362 16,900 1,645 Climbing Cleveland Center
Wed 08:17:26 AM 41.7042 -81.1506 76° East 317 365 18,500 1,645 Climbing Cleveland Center
Wed 08:18:28 AM 41.7250 -81.0303 77° East 323 372 20,300 1,610 Climbing Cleveland Center
Wed 08:19:29 AM 41.7458 -80.9092 77° East 329 379 21,800 1,463 Climbing Cleveland Center
Wed 08:20:31 AM 41.7694 -80.7850 76° East 338 389 23,300 1,548 Climbing Cleveland Center
Wed 08:21:33 AM 41.7928 -80.6375 78° East 340 391 25,000 1,548 Climbing Cleveland Center
Wed 08:22:35 AM 41.8089 -80.5131 80° East 341 392 26,500 1,306 Climbing Cleveland Center
Wed 08:23:37 AM 41.8131 -80.3872 87° East 338 389 27,700 1,161 Climbing Cleveland Center
Wed 08:24:39 AM 41.8253 -80.2603 83° East 339 390 28,900 1,113 Climbing Cleveland Center
Wed 08:25:41 AM 41.8308 -80.1325 87° East 341 392 30,000 1,065 Climbing Cleveland Center
Wed 08:26:43 AM 41.8419 -80.0056 83° East 340 391 31,100 1,065 Climbing Cleveland Center
Wed 08:27:45 AM 41.8481 -79.8800 86° East 338 389 32,200 1,024 Climbing Cleveland Center
Wed 08:28:46 AM 41.8589 -79.7550 83° East 337 388 33,200 1,024 Climbing Cleveland Center
Wed 08:29:48 AM 41.8669 -79.6219 85° East 336 387 34,300 871 Climbing Cleveland Center
Wed 08:30:50 AM 41.8736 -79.5003 86° East 332 382 35,000 339 Climbing Cleveland Center
Wed 08:31:52 AM 41.8831 -79.3722 84° East 343 395 35,000  Level Cleveland Center
Wed 08:32:54 AM 41.8897 -79.2233 87° East 371 427 35,000  Level Cleveland Center
Wed 08:33:56 AM 41.9011 -79.0806 84° East 382 440 35,000  Level Cleveland Center
Wed 08:34:58 AM 41.9100 -78.9050 86° East 394 453 35,000  Level Cleveland Center
Wed 08:36:00 AM 41.9186 -78.7689 85° East 395 455 35,000  Level Cleveland Center
Wed 08:37:02 AM 41.9264 -78.6228 86° East 395 455 35,000  Level Cleveland Center
Wed 08:38:04 AM 41.9347 -78.4750 86° East 395 455 35,000  Level Cleveland Center
Wed 08:39:06 AM 41.9456 -78.2992 85° East 396 456 35,000  Level Cleveland Center
Wed 08:40:08 AM 41.9503 -78.1722 87° East 396 456 35,000  Level Cleveland Center
Wed 08:41:10 AM 41.9606 -77.9967 85° East 396 456 35,000  Level Cleveland Center
Wed 08:42:12 AM 41.9669 -77.8511 87° East 395 455 35,000  Level Cleveland Center
Wed 08:43:14 AM 41.9742 -77.7061 86° East 395 455 35,000  Level Cleveland Center
Wed 08:44:53 AM 41.9858 -77.4722 86° East 395 455 35,000  Level Cleveland Center
Wed 08:46:32 AM 41.9844 -77.2128 90° East 386 444 35,000  Level Cleveland Center
Wed 08:47:34 AM 41.9606 -77.0719 103° East 386 444 35,000  Level Cleveland Center
Wed 08:48:36 AM 41.9561 -76.9275 92° East 392 451 35,000  Level Cleveland Center
Wed 08:49:38 AM 41.9703 -76.7811 83° East 397 457 35,000  Level Cleveland Center
Wed 08:50:40 AM 41.9772 -76.6328 86° East 398 458 35,000  Level Cleveland Center
Wed 08:51:42 AM 41.9917 -76.4561 84° East 398 458 35,000  Level Cleveland Center
Wed 08:52:44 AM 41.9994 -76.3083 86° East 398 458 35,000  Level Cleveland Center
Wed 08:53:46 AM 42.0128 -76.1592 83° East 401 461 35,000  Level Cleveland Center
Wed 08:54:48 AM 42.0206 -76.0061 86° East 401 461 35,000  Level Cleveland Center
Wed 08:56:53 AM 42.0406 -75.6908 85° East 401 461 35,000  Level Boston Center
Wed 08:57:53 AM 42.0489 -75.5442 86° East 397 457 35,000  Level Boston Center
Wed 08:58:54 AM 42.0597 -75.3967 84° East 397 457 35,000 -443 Level Boston Center
Wed 08:59:55 AM 42.0678 -75.2475 86° East 397 457 34,100 -919 Descending Boston Center
Wed 09:00:58 AM 42.0878 -75.0936 80° East 398 458 33,100 -919 Descending Boston Center
Wed 09:01:59 AM 42.1000 -74.9461 84° East 399 459 32,200 -942 Descending Boston Center
Wed 09:02:59 AM 42.1178 -74.7964 81° East 403 464 31,200 -1,000 Descending Boston Center
Wed 09:03:59 AM 42.1303 -74.6458 84° East 405 466 30,200 -1,041 Descending Boston Center
Wed 09:05:00 AM 42.1481 -74.4942 81° East 408 470 29,100 -581 Descending Boston Center
Wed 09:06:03 AM 42.1600 -74.3478 84° East 406 467 29,000 -532 Descending Boston Center
Wed 09:07:04 AM 42.1764 -74.1992 81° East 403 464 28,000 -1,082 Descending Boston Center
Wed 09:08:05 AM 42.1878 -74.0486 84° East 402 463 26,800 -1,131 Descending Boston Center
Wed 09:09:06 AM 42.2042 -73.9000 81° East 401 461 25,700 -1,140 Descending Boston Center
Wed 09:10:06 AM 42.2156 -73.7531 84° East 397 457 24,500 -1,207 Descending Boston Center
Wed 09:12:10 AM 42.2431 -73.4450 83° East 389 448 22,000 -1,213 Descending Boston Center
Wed 09:13:09 AM 42.2558 -73.2936 83° East 386 444 20,800 -1,131 Descending Boston Center
Wed 09:14:12 AM 42.2600 -73.1528 88° East 389 448 19,700 -871 Descending Boston Center
Wed 09:15:13 AM 42.1872 -73.0581 136° Southeast 358 412 19,000 -344 Descending Boston Center
Wed 09:16:14 AM 42.1000 -72.9767 145° Southeast 357 411 19,000  Level Boston Center
Wed 09:17:15 AM 42.0183 -72.8994 145° Southeast 357 411 19,000  Level Boston Center
Wed 09:18:15 AM 41.9367 -72.8242 146° Southeast 357 411 19,000 -149 Level Boston Center
Wed 09:19:16 AM 41.8572 -72.7317 139° Southeast 360 414 18,700 -934 Descending Boston Center
Wed 09:20:17 AM 41.8108 -72.6167 118° Southeast 356 410 17,100 -1,918 Descending Boston Center
Wed 09:21:18 AM 41.7650 -72.5039 119° Southeast 351 404 14,800 -2,143 Descending Boston Center
Wed 09:21:55 AM 41.7378 -72.4342 118° Southeast 345 397 13,600 -2,164 Descending Boston Center
Wed 09:22:19 AM 41.7197 -72.3922 120° Southeast 347 399 12,600 -2,182 Descending Boston Center
Wed 09:22:50 AM 41.6961 -72.3344 119° Southeast 337 388 11,600 -1,672 Descending Boston Center
Wed 09:23:20 AM 41.6714 -72.2781 120° Southeast 332 382 10,900 -600 Descending Boston Center
Wed 09:23:50 AM 41.6531 -72.2314 118° Southeast 323 372 11,000 95 Climbing Boston Center
Wed 09:24:23 AM 41.6294 -72.1714 118° Southeast 331 381 11,000 -90 Level Boston Center
Wed 09:24:57 AM 41.6014 -72.1081 121° Southeast 326 375 10,900 -868 Descending Boston Center
Wed 09:25:39 AM 41.5711 -72.0361 119° Southeast 318 366 9,900 -1,588 Descending Boston Center
Wed 09:26:39 AM 41.5739 -71.9303 88° East 300 345 8,200 -1,714 Descending Boston Center
Wed 09:27:52 AM 41.5306 -71.8164 117° Southeast 283 326 6,100 -1,759 Descending Boston Center
Wed 09:28:52 AM 41.4858 -71.7308 125° Southeast 279 321 4,300 -1,388 Descending Boston Center
Wed 09:29:53 AM 41.4975 -71.6431 80° East 268 308 3,300 -780 Descending Boston Center
Wed 09:30:55 AM 41.5567 -71.5869 35° Northeast 239 275 2,700 -600 Descending Boston Center
Wed 09:32:03 AM 41.6067 -71.5333 39° Northeast 180 207 2,000 -469 Descending Boston Center
Wed 09:33:03 AM 41.6453 -71.4928 38° Northeast 178 205 1,700 -496 Descending Boston Center
Wed 09:34:04 AM 41.6797 -71.4622 34° Northeast 128 147 1,000 -730 Descending Boston Center
Wed 09:34:58 AM 41.7083 -71.4381 32° Northeast 127 146 300 -778 Descending Boston Center
Wed 09:37:00 AM 41.7167 -71.4167 66° East  Level FlightAware Approximate

Login

Don't have an account? Register now (free) for customized features, flight alerts, and more!